createdAt,value
2023-04-18T00:00:52.057Z,0.00
2023-04-18T00:01:52.083Z,0.00
2023-04-18T00:02:52.188Z,0.00
2023-04-18T00:03:52.218Z,0.00
2023-04-18T00:04:52.050Z,0.00
2023-04-18T00:05:51.977Z,0.00
2023-04-18T00:06:51.984Z,11.19
2023-04-18T00:07:51.966Z,23.41
2023-04-18T00:08:51.936Z,25.64
2023-04-18T00:09:51.933Z,25.00
2023-04-18T00:10:51.989Z,25.11
2023-04-18T00:11:51.908Z,25.00
2023-04-18T00:12:51.892Z,25.00
2023-04-18T00:13:51.853Z,25.45
2023-04-18T00:14:51.842Z,24.62
2023-04-18T00:15:51.809Z,26.80
2023-04-18T00:16:51.936Z,25.61
2023-04-18T00:17:51.854Z,26.40
2023-04-18T00:18:51.862Z,25.00
2023-04-18T00:19:51.900Z,25.00
2023-04-18T00:20:51.909Z,25.00
2023-04-18T00:21:51.936Z,25.05
2023-04-18T00:22:51.957Z,25.79
2023-04-18T00:23:51.980Z,25.00
2023-04-18T00:24:52.022Z,25.00
2023-04-18T00:25:52.051Z,26.98
2023-04-18T00:26:52.108Z,25.35
2023-04-18T00:27:52.096Z,27.17
2023-04-18T00:28:52.139Z,28.83
2023-04-18T00:29:52.159Z,26.54
2023-04-18T00:30:52.240Z,25.00
2023-04-18T00:31:52.224Z,28.48
2023-04-18T00:32:52.292Z,25.93
2023-04-18T00:33:52.278Z,25.00
2023-04-18T00:34:52.312Z,28.18
2023-04-18T00:35:52.325Z,26.46
2023-04-18T00:36:52.359Z,27.23
2023-04-18T00:37:52.406Z,25.00
2023-04-18T00:38:52.420Z,28.53
2023-04-18T00:39:52.451Z,28.93
2023-04-18T00:40:52.482Z,27.37
2023-04-18T00:41:52.512Z,26.05
2023-04-18T00:42:52.559Z,27.69
2023-04-18T00:43:52.558Z,25.44
2023-04-18T00:44:52.582Z,27.46
2023-04-18T00:45:52.673Z,26.78
2023-04-18T00:46:52.630Z,27.79
2023-04-18T00:47:52.780Z,26.19
2023-04-18T00:48:52.683Z,25.40
2023-04-18T00:49:52.692Z,27.17
2023-04-18T00:50:52.711Z,29.76
2023-04-18T00:51:52.734Z,25.00
2023-04-18T00:52:52.755Z,26.73
2023-04-18T00:53:52.778Z,26.66
2023-04-18T00:54:52.804Z,26.38
2023-04-18T00:55:52.826Z,27.62
2023-04-18T00:56:52.840Z,27.34
2023-04-18T00:57:52.863Z,25.00
2023-04-18T00:58:52.904Z,25.01
2023-04-18T00:59:52.913Z,27.51
2023-04-18T01:00:52.930Z,26.31
2023-04-18T01:01:53.160Z,28.14
2023-04-18T01:02:53.196Z,27.38
2023-04-18T01:03:53.176Z,26.53
2023-04-18T01:04:53.039Z,26.50
2023-04-18T01:05:53.049Z,26.41
2023-04-18T01:06:53.081Z,29.67
2023-04-18T01:07:53.102Z,27.11
2023-04-18T01:08:53.125Z,26.47
2023-04-18T01:09:53.161Z,25.57
2023-04-18T01:10:53.176Z,29.07
2023-04-18T01:11:53.220Z,27.07
2023-04-18T01:12:53.233Z,26.25
2023-04-18T01:13:53.261Z,25.73
2023-04-18T01:14:53.311Z,30.38
2023-04-18T01:15:53.333Z,29.83
2023-04-18T01:16:53.337Z,28.71
2023-04-18T01:17:53.381Z,27.04
2023-04-18T01:18:53.376Z,27.22
2023-04-18T01:19:53.402Z,29.48
2023-04-18T01:20:53.427Z,27.88
2023-04-18T01:21:53.490Z,27.98
2023-04-18T01:22:53.479Z,27.23
2023-04-18T01:23:53.517Z,27.40
2023-04-18T01:24:53.540Z,26.12
2023-04-18T01:25:53.563Z,25.56
2023-04-18T01:26:53.589Z,26.04
2023-04-18T01:27:53.616Z,30.92
2023-04-18T01:28:53.643Z,30.03
2023-04-18T01:29:53.688Z,27.08
2023-04-18T01:30:53.758Z,28.29
2023-04-18T01:31:53.714Z,26.79
2023-04-18T01:32:53.798Z,28.58
2023-04-18T01:33:53.769Z,26.39
2023-04-18T01:34:53.799Z,29.61
2023-04-18T01:35:53.829Z,28.69
2023-04-18T01:36:53.847Z,28.98
2023-04-18T01:37:53.881Z,29.43
2023-04-18T01:38:53.910Z,25.74
2023-04-18T01:39:53.929Z,29.30
2023-04-18T01:40:53.966Z,25.98
2023-04-18T01:41:53.974Z,28.11
2023-04-18T01:42:54.004Z,27.41
2023-04-18T01:43:54.023Z,26.17
2023-04-18T01:44:54.053Z,26.57
2023-04-18T01:45:54.077Z,26.94
2023-04-18T01:46:54.169Z,25.46
2023-04-18T01:47:54.157Z,26.80
2023-04-18T01:48:54.157Z,27.12
2023-04-18T01:49:54.188Z,30.40
2023-04-18T01:50:54.215Z,28.68
2023-04-18T01:51:54.248Z,29.73
2023-04-18T01:52:54.281Z,25.00
2023-04-18T01:53:54.321Z,26.03
2023-04-18T01:54:54.333Z,29.50
2023-04-18T01:55:54.355Z,29.27
2023-04-18T01:56:54.397Z,25.26
2023-04-18T01:57:54.417Z,25.62
2023-04-18T01:58:54.446Z,26.10
2023-04-18T01:59:54.674Z,27.41
2023-04-18T02:00:54.555Z,28.36
2023-04-18T02:01:54.666Z,26.91
2023-04-18T02:02:54.655Z,27.31
2023-04-18T02:03:54.690Z,27.47
2023-04-18T02:04:54.619Z,27.93
2023-04-18T02:05:54.663Z,27.06
2023-04-18T02:06:54.686Z,27.83
2023-04-18T02:07:54.702Z,27.99
2023-04-18T02:08:54.759Z,29.18
2023-04-18T02:09:54.757Z,27.36
2023-04-18T02:10:54.793Z,28.79
2023-04-18T02:11:54.826Z,28.30
2023-04-18T02:12:54.856Z,25.00
2023-04-18T02:13:54.873Z,29.23
2023-04-18T02:14:54.906Z,26.82
2023-04-18T02:15:54.929Z,28.25
2023-04-18T02:16:55.057Z,28.29
2023-04-18T02:17:54.992Z,26.18
2023-04-18T02:18:55.042Z,28.49
2023-04-18T02:19:55.045Z,30.02
2023-04-18T02:20:55.076Z,28.36
2023-04-18T02:21:55.103Z,29.46
2023-04-18T02:22:55.140Z,29.25
2023-04-18T02:23:55.167Z,27.54
2023-04-18T02:24:55.192Z,30.29
2023-04-18T02:25:55.228Z,28.29
2023-04-18T02:26:55.255Z,28.01
2023-04-18T02:27:55.292Z,30.06
2023-04-18T02:28:55.331Z,29.58
2023-04-18T02:29:55.353Z,28.16
2023-04-18T02:30:55.381Z,29.83
2023-04-18T02:31:55.464Z,25.00
2023-04-18T02:32:55.502Z,25.74
2023-04-18T02:33:55.468Z,26.28
2023-04-18T02:34:55.521Z,25.40
2023-04-18T02:35:55.516Z,26.85
2023-04-18T02:36:55.546Z,28.77
2023-04-18T02:37:55.569Z,29.49
2023-04-18T02:38:55.600Z,28.67
2023-04-18T02:39:55.637Z,29.88
2023-04-18T02:40:55.663Z,27.65
2023-04-18T02:41:55.691Z,29.07
2023-04-18T02:42:55.714Z,26.18
2023-04-18T02:43:55.737Z,30.04
2023-04-18T02:44:55.780Z,29.24
2023-04-18T02:45:55.852Z,28.51
2023-04-18T02:46:55.826Z,30.87
2023-04-18T02:47:56.657Z,27.25
2023-04-18T02:48:55.894Z,28.13
2023-04-18T02:49:55.919Z,27.82
2023-04-18T02:50:56.021Z,26.05
2023-04-18T02:51:55.978Z,28.73
2023-04-18T02:52:56.064Z,29.02
2023-04-18T02:53:56.032Z,25.41
2023-04-18T02:54:56.071Z,28.99
2023-04-18T02:55:56.138Z,29.98
2023-04-18T02:56:56.132Z,29.55
2023-04-18T02:57:56.156Z,26.93
2023-04-18T02:58:56.182Z,27.70
2023-04-18T02:59:56.217Z,28.56
2023-04-18T03:00:56.278Z,27.66
2023-04-18T03:01:56.308Z,28.63
2023-04-18T03:02:56.396Z,29.89
2023-04-18T03:03:56.369Z,29.17
2023-04-18T03:04:56.437Z,29.18
2023-04-18T03:05:56.409Z,27.60
2023-04-18T03:06:56.459Z,31.00
2023-04-18T03:07:56.458Z,25.45
2023-04-18T03:08:56.489Z,28.74
2023-04-18T03:09:56.524Z,30.12
2023-04-18T03:10:56.572Z,25.18
2023-04-18T03:11:56.588Z,27.76
2023-04-18T03:12:56.603Z,28.28
2023-04-18T03:13:56.645Z,28.47
2023-04-18T03:14:56.684Z,25.38
2023-04-18T03:15:56.737Z,26.77
2023-04-18T03:16:56.737Z,28.05
2023-04-18T03:17:56.809Z,25.27
2023-04-18T03:18:56.798Z,28.97
2023-04-18T03:19:56.825Z,27.26
2023-04-18T03:20:56.862Z,28.47
2023-04-18T03:21:56.891Z,26.38
2023-04-18T03:22:57.031Z,30.14
2023-04-18T03:23:56.949Z,25.61
2023-04-18T03:24:56.936Z,26.37
2023-04-18T03:25:56.964Z,28.07
2023-04-18T03:26:56.977Z,25.00
2023-04-18T03:27:56.994Z,28.02
2023-04-18T03:28:57.028Z,27.12
2023-04-18T03:29:57.050Z,27.93
2023-04-18T03:30:57.118Z,26.64
2023-04-18T03:31:57.104Z,25.13
2023-04-18T03:32:57.149Z,26.71
2023-04-18T03:33:57.139Z,25.98
2023-04-18T03:34:57.166Z,26.59
2023-04-18T03:35:57.184Z,27.12
2023-04-18T03:36:57.205Z,26.20
2023-04-18T03:37:57.213Z,28.52
2023-04-18T03:38:57.263Z,26.33
2023-04-18T03:39:57.258Z,28.55
2023-04-18T03:40:57.262Z,27.89
2023-04-18T03:41:57.273Z,29.29
2023-04-18T03:42:57.277Z,27.80
2023-04-18T03:43:57.301Z,28.72
2023-04-18T03:44:57.320Z,29.32
2023-04-18T03:45:57.361Z,27.36
2023-04-18T03:46:57.353Z,28.90
2023-04-18T03:47:57.386Z,27.83
2023-04-18T03:48:57.356Z,26.15
2023-04-18T03:49:57.364Z,27.22
2023-04-18T03:50:57.374Z,27.16
2023-04-18T03:51:57.381Z,27.54
2023-04-18T03:52:57.391Z,29.69
2023-04-18T03:53:57.409Z,28.52
2023-04-18T03:54:57.472Z,27.77
2023-04-18T03:55:57.427Z,26.47
2023-04-18T03:56:57.451Z,27.73
2023-04-18T03:57:57.450Z,26.46
2023-04-18T03:58:57.458Z,27.10
2023-04-18T03:59:57.470Z,27.35
2023-04-18T04:00:57.471Z,27.17
2023-04-18T04:01:57.545Z,25.93
2023-04-18T04:02:57.691Z,25.26
2023-04-18T04:03:57.635Z,27.39
2023-04-18T04:04:57.542Z,27.52
2023-04-18T04:05:57.518Z,28.44
2023-04-18T04:06:57.518Z,27.84
2023-04-18T04:07:57.530Z,28.63
2023-04-18T04:08:57.538Z,26.28
2023-04-18T04:09:57.534Z,28.54
2023-04-18T04:10:57.558Z,28.45
2023-04-18T04:11:57.538Z,25.82
2023-04-18T04:12:57.541Z,28.39
2023-04-18T04:13:57.545Z,29.63
2023-04-18T04:14:57.541Z,27.60
2023-04-18T04:15:57.547Z,26.71
2023-04-18T04:16:57.544Z,26.22
2023-04-18T04:17:57.589Z,27.97
2023-04-18T04:18:57.550Z,27.50
2023-04-18T04:19:57.549Z,27.47
2023-04-18T04:20:57.534Z,27.86
2023-04-18T04:21:57.540Z,28.19
2023-04-18T04:22:57.540Z,27.52
2023-04-18T04:23:57.533Z,28.17
2023-04-18T04:24:57.532Z,30.34
2023-04-18T04:25:57.528Z,26.96
2023-04-18T04:26:57.557Z,25.80
2023-04-18T04:27:57.526Z,26.69
2023-04-18T04:28:57.524Z,27.52
2023-04-18T04:29:57.525Z,27.76
2023-04-18T04:30:57.520Z,27.06
2023-04-18T04:31:57.568Z,29.07
2023-04-18T04:32:57.539Z,28.92
2023-04-18T04:33:57.522Z,27.64
2023-04-18T04:34:57.521Z,26.77
2023-04-18T04:35:57.511Z,26.69
2023-04-18T04:36:57.510Z,27.62
2023-04-18T04:37:57.512Z,26.65
2023-04-18T04:38:57.512Z,26.45
2023-04-18T04:39:57.525Z,27.16
2023-04-18T04:40:57.503Z,27.62
2023-04-18T04:41:57.528Z,27.66
2023-04-18T04:42:57.523Z,26.79
2023-04-18T04:43:57.504Z,28.28
2023-04-18T04:44:57.547Z,28.16
2023-04-18T04:45:57.598Z,27.47
2023-04-18T04:46:57.495Z,29.07
2023-04-18T04:47:57.541Z,27.82
2023-04-18T04:48:57.482Z,28.35
2023-04-18T04:49:57.473Z,27.58
2023-04-18T04:50:57.470Z,28.19
2023-04-18T04:51:58.035Z,26.64
2023-04-18T04:52:57.458Z,26.91
2023-04-18T04:53:57.458Z,27.60
2023-04-18T04:54:57.475Z,27.36
2023-04-18T04:55:57.453Z,27.55
2023-04-18T04:56:57.440Z,26.51
2023-04-18T04:57:57.444Z,27.39
2023-04-18T04:58:57.462Z,28.53
2023-04-18T04:59:57.438Z,27.32
2023-04-18T05:00:57.479Z,26.49
2023-04-18T05:01:57.501Z,27.29
2023-04-18T05:02:57.600Z,28.49
2023-04-18T05:03:57.509Z,26.78
2023-04-18T05:04:57.404Z,28.14
2023-04-18T05:05:57.385Z,26.43
2023-04-18T05:06:57.372Z,26.58
2023-04-18T05:07:57.365Z,26.53
2023-04-18T05:08:57.359Z,26.28
2023-04-18T05:09:57.365Z,27.10
2023-04-18T05:10:57.341Z,26.76
2023-04-18T05:11:57.334Z,26.70
2023-04-18T05:12:57.324Z,25.73
2023-04-18T05:13:57.333Z,25.98
2023-04-18T05:14:57.334Z,26.58
2023-04-18T05:15:57.295Z,25.23
2023-04-18T05:16:57.354Z,26.39
2023-04-18T05:17:57.470Z,27.79
2023-04-18T05:18:57.287Z,25.00
2023-04-18T05:19:57.283Z,25.25
2023-04-18T05:20:57.260Z,25.00
2023-04-18T05:21:57.261Z,27.69
2023-04-18T05:22:57.312Z,27.01
2023-04-18T05:23:57.257Z,25.00
2023-04-18T05:24:57.262Z,27.46
2023-04-18T05:25:57.455Z,27.13
2023-04-18T05:26:57.230Z,29.14
2023-04-18T05:27:57.229Z,27.23
2023-04-18T05:28:57.224Z,28.75
2023-04-18T05:29:57.221Z,29.51
2023-04-18T05:30:57.512Z,28.27
2023-04-18T05:31:57.187Z,28.02
2023-04-18T05:32:57.245Z,27.81
2023-04-18T05:33:57.171Z,27.28
2023-04-18T05:34:57.153Z,26.10
2023-04-18T05:35:57.159Z,25.77
2023-04-18T05:36:57.937Z,31.08
2023-04-18T05:37:57.460Z,29.93
2023-04-18T05:38:57.143Z,32.47
2023-04-18T05:40:00.015Z,25.50
2023-04-18T05:40:57.106Z,25.77
2023-04-18T05:41:57.128Z,22.43
2023-04-18T05:42:57.266Z,18.53
2023-04-18T05:44:04.937Z,26.95
2023-04-18T05:44:57.124Z,25.78
2023-04-18T05:45:58.002Z,23.42
2023-04-18T05:46:57.148Z,27.11
2023-04-18T05:47:57.480Z,21.58
2023-04-18T05:48:57.461Z,21.25
2023-04-18T05:49:57.444Z,28.56
2023-04-18T05:50:56.979Z,29.62
2023-04-18T05:51:56.960Z,45.48
2023-04-18T05:52:56.932Z,50.83
2023-04-18T05:53:57.964Z,55.84
2023-04-18T05:54:56.888Z,62.43
2023-04-18T05:55:56.900Z,68.34
2023-04-18T05:56:56.891Z,74.94
2023-04-18T05:57:56.957Z,95.49
2023-04-18T05:58:56.830Z,96.79
2023-04-18T05:59:56.965Z,102.73
2023-04-18T06:00:56.764Z,125.63
2023-04-18T06:01:56.787Z,131.67
2023-04-18T06:02:57.163Z,130.93
2023-04-18T06:03:57.031Z,132.24
2023-04-18T06:04:56.862Z,158.90
2023-04-18T06:05:56.685Z,175.53
2023-04-18T06:06:56.678Z,177.66
2023-04-18T06:07:56.958Z,178.29
2023-04-18T06:08:56.757Z,177.27
2023-04-18T06:09:57.052Z,175.00
2023-04-18T06:10:56.849Z,171.79
2023-04-18T06:11:56.854Z,171.13
2023-04-18T06:12:56.890Z,168.76
2023-04-18T06:13:56.960Z,166.46
2023-04-18T06:14:57.544Z,171.13
2023-04-18T06:15:57.573Z,165.46
2023-04-18T06:16:57.462Z,162.88
2023-04-18T06:17:57.651Z,157.66
2023-04-18T06:18:59.683Z,163.09
2023-04-18T06:19:57.722Z,161.27
2023-04-18T06:20:57.381Z,157.34
2023-04-18T06:21:57.481Z,153.13
2023-04-18T06:22:57.502Z,147.08
2023-04-18T06:23:57.652Z,154.59
2023-04-18T06:24:57.446Z,150.16
2023-04-18T06:25:57.284Z,148.99
2023-04-18T06:26:57.138Z,148.89
2023-04-18T06:27:56.931Z,148.75
2023-04-18T06:28:57.170Z,146.45
2023-04-18T06:29:57.479Z,152.05
2023-04-18T06:30:57.034Z,156.16
2023-04-18T06:31:57.097Z,155.20
2023-04-18T06:32:57.328Z,155.40
2023-04-18T06:33:57.304Z,152.46
2023-04-18T06:34:57.032Z,146.93
2023-04-18T06:35:56.813Z,146.87
2023-04-18T06:36:56.813Z,146.95
2023-04-18T06:37:56.819Z,148.44
2023-04-18T06:38:56.966Z,145.54
2023-04-18T06:39:56.867Z,148.43
2023-04-18T06:40:56.835Z,153.67
2023-04-18T06:41:56.846Z,149.62
2023-04-18T06:42:56.846Z,133.52
2023-04-18T06:44:02.604Z,139.60
2023-04-18T06:44:56.829Z,139.72
2023-04-18T06:45:56.887Z,139.67
2023-04-18T06:46:57.019Z,140.81
2023-04-18T06:47:56.771Z,140.93
2023-04-18T06:48:56.696Z,133.58
2023-04-18T06:49:56.980Z,135.54
2023-04-18T06:50:57.039Z,140.18
2023-04-18T06:51:56.610Z,143.43
2023-04-18T06:53:00.229Z,136.17
2023-04-18T06:53:56.494Z,136.41
2023-04-18T06:54:56.499Z,135.25
2023-04-18T06:55:56.410Z,122.77
2023-04-18T06:56:56.378Z,116.06
2023-04-18T06:57:56.348Z,124.48
2023-04-18T06:58:57.470Z,118.82
2023-04-18T06:59:56.279Z,124.26
2023-04-18T07:00:56.571Z,126.25
2023-04-18T07:01:56.215Z,124.49
2023-04-18T07:02:56.318Z,108.40
2023-04-18T07:03:56.649Z,104.74
2023-04-18T07:04:56.090Z,111.90
2023-04-18T07:05:56.044Z,115.16
2023-04-18T07:06:56.170Z,118.07
2023-04-18T07:07:55.966Z,115.31
2023-04-18T07:08:56.978Z,116.06
2023-04-18T07:09:55.887Z,117.25
2023-04-18T07:11:11.437Z,121.21
2023-04-18T07:11:55.805Z,121.63
2023-04-18T07:12:55.799Z,123.24
2023-04-18T07:13:55.991Z,125.37
2023-04-18T07:14:55.713Z,129.07
2023-04-18T07:15:55.673Z,128.33
2023-04-18T07:16:55.672Z,125.93
2023-04-18T07:17:55.617Z,123.57
2023-04-18T07:18:55.565Z,122.22
2023-04-18T07:19:55.530Z,116.37
2023-04-18T07:20:55.501Z,119.27
2023-04-18T07:21:55.463Z,117.88
2023-04-18T07:22:55.485Z,114.26
2023-04-18T07:23:55.485Z,115.18
2023-04-18T07:24:55.344Z,113.99
2023-04-18T07:25:55.305Z,105.10
2023-04-18T07:26:55.386Z,104.38
2023-04-18T07:27:55.484Z,110.21
2023-04-18T07:28:55.476Z,119.24
2023-04-18T07:29:54.168Z,115.13
2023-04-18T07:30:55.185Z,108.00
2023-04-18T07:31:55.081Z,104.79
2023-04-18T07:32:55.112Z,112.29
2023-04-18T07:33:55.531Z,110.71
2023-04-18T07:34:54.997Z,99.86
2023-04-18T07:35:54.960Z,109.97
2023-04-18T07:36:54.890Z,113.79
2023-04-18T07:37:54.872Z,118.38
2023-04-18T07:38:55.099Z,125.09
2023-04-18T07:39:54.823Z,120.63
2023-04-18T07:40:54.794Z,128.54
2023-04-18T07:41:54.784Z,123.65
2023-04-18T07:42:54.719Z,130.67
2023-04-18T07:43:54.998Z,120.09
2023-04-18T07:44:54.626Z,123.22
2023-04-18T07:45:54.601Z,128.12
2023-04-18T07:46:54.551Z,126.09
2023-04-18T07:47:54.547Z,122.24
2023-04-18T07:48:54.493Z,109.74
2023-04-18T07:49:54.441Z,106.52
2023-04-18T07:50:54.526Z,107.99
2023-04-18T07:51:54.319Z,106.00
2023-04-18T07:52:54.283Z,98.61
2023-04-18T07:53:54.230Z,99.21
2023-04-18T07:54:54.521Z,96.30
2023-04-18T07:55:54.502Z,78.30
2023-04-18T07:56:54.114Z,81.70
2023-04-18T07:57:54.084Z,75.76
2023-04-18T07:58:54.034Z,55.06
2023-04-18T07:59:53.982Z,43.29
2023-04-18T08:00:53.997Z,56.86
2023-04-18T08:01:53.937Z,38.57
2023-04-18T08:02:53.931Z,32.87
2023-04-18T08:03:53.976Z,26.48
2023-04-18T08:04:53.974Z,25.00
2023-04-18T08:05:54.001Z,26.76
2023-04-18T08:06:53.749Z,41.54
2023-04-18T08:07:53.721Z,49.26
2023-04-18T08:08:53.993Z,55.65
2023-04-18T08:09:53.660Z,46.64
2023-04-18T08:10:53.732Z,46.11
2023-04-18T08:11:53.605Z,39.36
2023-04-18T08:12:53.569Z,45.12
2023-04-18T08:13:53.525Z,44.83
2023-04-18T08:14:53.497Z,37.31
2023-04-18T08:15:53.543Z,46.04
2023-04-18T08:16:53.431Z,37.35
2023-04-18T08:17:53.405Z,28.95
2023-04-18T08:18:53.375Z,36.74
2023-04-18T08:19:53.505Z,41.46
2023-04-18T08:20:53.316Z,32.80
2023-04-18T08:21:53.301Z,33.67
2023-04-18T08:23:06.115Z,27.63
2023-04-18T08:23:53.289Z,27.78
2023-04-18T08:25:04.469Z,29.05
2023-04-18T08:25:53.205Z,28.11
2023-04-18T08:26:53.239Z,24.46
2023-04-18T08:27:53.127Z,21.32
2023-04-18T08:28:53.101Z,7.21
2023-04-18T08:29:53.534Z,12.77
2023-04-18T08:30:53.032Z,27.53
2023-04-18T08:31:53.072Z,46.29
2023-04-18T08:32:53.101Z,61.58
2023-04-18T08:33:52.947Z,63.35
2023-04-18T08:34:53.031Z,71.88
2023-04-18T08:35:52.858Z,77.01
2023-04-18T08:36:52.809Z,79.83
2023-04-18T08:37:52.807Z,73.32
2023-04-18T08:38:52.754Z,79.51
2023-04-18T08:39:53.804Z,77.93
2023-04-18T08:40:52.687Z,85.46
2023-04-18T08:41:52.648Z,102.30
2023-04-18T08:42:52.738Z,113.80
2023-04-18T08:43:55.149Z,120.12
2023-04-18T08:44:53.019Z,120.20
2023-04-18T08:45:52.620Z,106.30
2023-04-18T08:46:52.474Z,115.14
2023-04-18T08:47:52.465Z,108.89
2023-04-18T08:48:52.407Z,114.82
2023-04-18T08:49:52.512Z,124.66
2023-04-18T08:50:52.338Z,118.41
2023-04-18T08:51:52.284Z,136.41
2023-04-18T08:52:52.261Z,141.38
2023-04-18T08:53:52.513Z,139.25
2023-04-18T08:54:52.182Z,142.38
2023-04-18T08:55:52.168Z,144.06
2023-04-18T08:56:52.141Z,132.49
2023-04-18T08:57:52.086Z,141.15
2023-04-18T08:58:52.594Z,133.74
2023-04-18T08:59:52.048Z,143.62
2023-04-18T09:00:52.084Z,147.40
2023-04-18T09:01:51.043Z,169.24
2023-04-18T09:02:52.723Z,211.33
2023-04-18T09:03:52.078Z,199.23
2023-04-18T09:04:52.001Z,209.59
2023-04-18T09:05:51.988Z,204.25
2023-04-18T09:06:51.978Z,185.63
2023-04-18T09:07:52.014Z,169.20
2023-04-18T09:08:51.919Z,184.72
2023-04-18T09:09:51.890Z,187.37
2023-04-18T09:10:51.875Z,181.57
2023-04-18T09:11:51.833Z,176.82
2023-04-18T09:12:52.128Z,182.02
2023-04-18T09:13:51.782Z,170.61
2023-04-18T09:14:51.905Z,182.34
2023-04-18T09:15:51.739Z,188.50
2023-04-18T09:16:51.743Z,187.82
2023-04-18T09:17:52.036Z,167.88
2023-04-18T09:18:51.652Z,174.39
2023-04-18T09:19:51.620Z,179.59
2023-04-18T09:20:51.590Z,185.57
2023-04-18T09:21:52.022Z,190.76
2023-04-18T09:22:51.620Z,185.97
2023-04-18T09:23:51.587Z,193.02
2023-04-18T09:24:51.564Z,182.26
2023-04-18T09:25:52.027Z,181.06
2023-04-18T09:26:52.024Z,179.34
2023-04-18T09:27:52.061Z,174.83
2023-04-18T09:28:53.734Z,173.90
2023-04-18T09:29:51.538Z,161.39
2023-04-18T09:30:51.697Z,165.36
2023-04-18T09:31:51.534Z,151.07
2023-04-18T09:32:51.618Z,120.61
2023-04-18T09:33:51.404Z,72.30
2023-04-18T09:34:51.376Z,25.00
2023-04-18T09:35:51.342Z,24.21
2023-04-18T09:36:51.559Z,26.42
2023-04-18T09:37:52.266Z,12.91
2023-04-18T09:38:53.720Z,24.12
2023-04-18T09:39:51.212Z,24.19
2023-04-18T09:40:51.532Z,12.05
2023-04-18T09:41:51.163Z,13.33
2023-04-18T09:42:51.147Z,5.79
2023-04-18T09:43:51.159Z,0.00
2023-04-18T09:44:51.207Z,23.19
2023-04-18T09:45:51.548Z,28.50
2023-04-18T09:46:51.448Z,29.21
2023-04-18T09:47:51.560Z,26.37
2023-04-18T09:48:51.342Z,25.00
2023-04-18T09:49:51.391Z,25.34
2023-04-18T09:50:51.460Z,25.00
2023-04-18T09:51:51.558Z,25.04
2023-04-18T09:52:51.513Z,34.26
2023-04-18T09:53:52.581Z,25.83
2023-04-18T09:54:51.599Z,33.44
2023-04-18T09:55:52.082Z,41.06
2023-04-18T09:56:51.681Z,35.46
2023-04-18T09:57:51.727Z,34.82
2023-04-18T09:58:51.767Z,48.88
2023-04-18T09:59:51.790Z,32.70
2023-04-18T10:00:52.044Z,27.43
2023-04-18T10:01:51.940Z,28.29
2023-04-18T10:02:52.093Z,25.00
2023-04-18T10:03:52.054Z,26.77
2023-04-18T10:04:52.207Z,25.00
2023-04-18T10:05:52.554Z,28.53
2023-04-18T10:06:52.100Z,31.01
2023-04-18T10:07:52.255Z,35.20
2023-04-18T10:08:52.140Z,46.44
2023-04-18T10:09:52.184Z,50.52
2023-04-18T10:10:52.555Z,50.69
2023-04-18T10:11:52.227Z,56.02
2023-04-18T10:12:52.292Z,55.90
2023-04-18T10:13:52.321Z,46.55
2023-04-18T10:14:52.538Z,47.82
2023-04-18T10:15:52.471Z,51.17
2023-04-18T10:16:52.420Z,46.03
2023-04-18T10:18:03.468Z,47.56
2023-04-18T10:18:52.632Z,47.62
2023-04-18T10:19:52.425Z,48.93
2023-04-18T10:20:52.395Z,51.15
2023-04-18T10:21:52.366Z,55.02
2023-04-18T10:22:53.587Z,60.40
2023-04-18T10:23:52.303Z,58.14
2023-04-18T10:24:52.556Z,68.53
2023-04-18T10:25:52.258Z,66.70
2023-04-18T10:26:52.945Z,70.74
2023-04-18T10:27:52.195Z,77.13
2023-04-18T10:28:52.551Z,85.55
2023-04-18T10:29:52.161Z,85.94
2023-04-18T10:30:52.132Z,68.87
2023-04-18T10:31:52.667Z,40.64
2023-04-18T10:32:52.127Z,21.00
2023-04-18T10:34:03.178Z,22.65
2023-04-18T10:34:52.101Z,0.00
2023-04-18T10:35:52.047Z,0.00
2023-04-18T10:36:52.049Z,0.00
2023-04-18T10:37:52.352Z,0.00
2023-04-18T10:38:52.029Z,0.00
2023-04-18T10:39:51.987Z,0.00
2023-04-18T10:40:52.116Z,0.00
2023-04-18T10:41:52.092Z,0.00
2023-04-18T10:42:52.072Z,4.26
2023-04-18T10:43:51.937Z,33.06
2023-04-18T10:44:51.922Z,46.72
2023-04-18T10:45:51.938Z,38.91
2023-04-18T10:46:51.984Z,48.86
2023-04-18T10:47:52.117Z,44.82
2023-04-18T10:48:51.862Z,54.12
2023-04-18T10:49:51.836Z,58.43
2023-04-18T10:50:51.837Z,56.46
2023-04-18T10:51:52.680Z,57.60
2023-04-18T10:52:51.767Z,60.28
2023-04-18T10:53:51.758Z,63.27
2023-04-18T10:54:51.747Z,72.48
2023-04-18T10:55:51.728Z,82.72
2023-04-18T10:56:51.717Z,60.75
2023-04-18T10:57:52.056Z,51.57
2023-04-18T10:58:51.720Z,70.68
2023-04-18T10:59:51.657Z,68.78
2023-04-18T11:00:51.675Z,62.54
2023-04-18T11:01:52.062Z,51.43
2023-04-18T11:02:51.750Z,43.86
2023-04-18T11:03:51.813Z,42.73
2023-04-18T11:04:51.566Z,46.47
2023-04-18T11:05:51.551Z,52.50
2023-04-18T11:06:51.647Z,49.90
2023-04-18T11:07:52.060Z,44.79
2023-04-18T11:08:51.571Z,51.36
2023-04-18T11:09:52.059Z,55.69
2023-04-18T11:10:51.589Z,55.77
2023-04-18T11:11:52.068Z,63.43
2023-04-18T11:12:51.597Z,65.84
2023-04-18T11:13:51.612Z,64.89
2023-04-18T11:14:51.622Z,68.57
2023-04-18T11:15:51.627Z,72.88
2023-04-18T11:16:52.139Z,78.06
2023-04-18T11:17:51.674Z,77.12
2023-04-18T11:18:51.661Z,85.78
2023-04-18T11:19:52.073Z,89.58
2023-04-18T11:20:51.666Z,91.04
2023-04-18T11:21:52.094Z,92.35
2023-04-18T11:22:51.814Z,93.55
2023-04-18T11:23:51.668Z,100.51
2023-04-18T11:24:51.673Z,101.78
2023-04-18T11:25:51.686Z,111.71
2023-04-18T11:26:52.072Z,115.28
2023-04-18T11:27:51.722Z,118.65
2023-04-18T11:28:51.693Z,132.74
2023-04-18T11:29:51.705Z,133.91
2023-04-18T11:30:51.757Z,141.21
2023-04-18T11:31:52.123Z,143.56
2023-04-18T11:32:52.141Z,139.64
2023-04-18T11:33:51.713Z,136.05
2023-04-18T11:34:51.725Z,140.78
2023-04-18T11:35:51.711Z,139.56
2023-04-18T11:36:51.717Z,139.55
2023-04-18T11:37:51.730Z,144.67
2023-04-18T11:38:52.096Z,142.67
2023-04-18T11:39:51.734Z,140.39
2023-04-18T11:40:51.747Z,132.81
2023-04-18T11:41:52.072Z,130.25
2023-04-18T11:42:51.781Z,113.89
2023-04-18T11:43:52.089Z,122.76
2023-04-18T11:44:51.814Z,127.35
2023-04-18T11:45:51.843Z,126.61
2023-04-18T11:46:52.130Z,120.57
2023-04-18T11:47:51.899Z,122.40
2023-04-18T11:48:51.871Z,125.05
2023-04-18T11:49:51.871Z,108.66
2023-04-18T11:50:51.894Z,95.93
2023-04-18T11:51:51.925Z,100.91
2023-04-18T11:52:51.968Z,103.12
2023-04-18T11:53:51.965Z,97.79
2023-04-18T11:54:52.053Z,87.05
2023-04-18T11:55:52.041Z,89.24
2023-04-18T11:56:52.083Z,97.47
2023-04-18T11:57:52.034Z,109.29
2023-04-18T11:58:52.062Z,163.24
2023-04-18T11:59:52.091Z,199.79
2023-04-18T12:00:52.119Z,250.95
2023-04-18T12:01:53.204Z,249.19
2023-04-18T12:02:52.316Z,241.69
2023-04-18T12:03:52.282Z,244.07
2023-04-18T12:04:52.360Z,243.92
2023-04-18T12:05:52.312Z,243.80
2023-04-18T12:06:52.653Z,249.30
2023-04-18T12:07:52.175Z,250.53
2023-04-18T12:08:54.022Z,250.00
2023-04-18T12:10:40.856Z,25.00
2023-04-18T12:11:41.858Z,25.00
2023-04-18T12:12:41.672Z,25.00
2023-04-18T12:13:41.840Z,25.00
2023-04-18T12:14:41.675Z,25.00
2023-04-18T12:15:41.589Z,27.12
2023-04-18T12:16:41.993Z,25.29
2023-04-18T12:17:41.985Z,25.00
2023-04-18T12:18:40.859Z,25.00
2023-04-18T12:19:41.716Z,27.61
2023-04-18T12:20:41.605Z,25.47
2023-04-18T12:21:41.592Z,25.08
2023-04-18T12:22:41.858Z,25.00
2023-04-18T12:23:41.957Z,28.69
2023-04-18T12:24:41.906Z,28.95
2023-04-18T12:25:41.837Z,32.78
2023-04-18T12:26:41.773Z,33.31
2023-04-18T12:27:41.864Z,25.90
2023-04-18T12:28:41.979Z,25.00
2023-04-18T12:29:41.827Z,28.55
2023-04-18T12:30:41.905Z,32.62
2023-04-18T12:31:41.968Z,33.81
2023-04-18T12:32:42.558Z,28.72
2023-04-18T12:33:42.350Z,27.01
2023-04-18T12:34:43.086Z,26.48
2023-04-18T12:35:42.015Z,25.00
2023-04-18T12:36:42.119Z,25.00
2023-04-18T12:37:42.365Z,28.80
2023-04-18T12:38:42.509Z,33.61
2023-04-18T12:39:42.182Z,27.71
2023-04-18T12:40:42.183Z,26.75
2023-04-18T12:41:42.162Z,26.49
2023-04-18T12:42:42.389Z,28.89
2023-04-18T12:43:42.237Z,25.64
2023-04-18T12:44:42.279Z,25.32
2023-04-18T12:45:42.380Z,25.00
2023-04-18T12:46:42.439Z,29.17
2023-04-18T12:47:43.118Z,27.48